Time,TemperatureF,DewpointF,PressureIn,WindDirection,WindDirectionDegrees,WindSpeedMPH,WindSpeedGustMPH,Humidity,HourlyPrecipIn,Conditions,Clouds,dailyrainin,SoftwareType,DateUTC
2013-02-27 00:00:00,34.4,33.4,29.79,East,94,2.0,6.0,96,0.04,,,0.30,VWS V14.01,2013-02-27 05:00:00,
2013-02-27 00:05:00,34.4,33.4,29.79,East,94,2.0,4.0,96,0.05,,,0.01,VWS V14.01,2013-02-27 05:05:00,
2013-02-27 00:10:00,34.4,33.4,29.78,ENE,70,2.0,4.0,96,0.06,,,0.02,VWS V14.01,2013-02-27 05:10:00,
2013-02-27 00:15:00,34.4,33.4,29.78,East,101,1.0,4.0,96,0.06,,,0.02,VWS V14.01,2013-02-27 05:15:00,
2013-02-27 00:20:00,34.4,33.4,29.78,ESE,103,0.0,4.0,96,0.07,,,0.03,VWS V14.01,2013-02-27 05:20:00,
2013-02-27 00:25:00,34.3,33.3,29.78,ESE,105,0.0,4.0,96,0.07,,,0.03,VWS V14.01,2013-02-27 05:25:00,
2013-02-27 00:30:00,34.2,33.2,29.78,SW,231,0.0,0.0,96,0.07,,,0.04,VWS V14.01,2013-02-27 05:30:00,
2013-02-27 00:35:00,34.1,33.1,29.77,East,80,2.0,2.0,96,0.07,,,0.04,VWS V14.01,2013-02-27 05:35:00,
2013-02-27 00:40:00,34.1,33.1,29.77,East,89,1.0,3.0,96,0.08,,,0.05,VWS V14.01,2013-02-27 05:40:00,
2013-02-27 00:45:00,34.1,33.1,29.76,East,94,1.0,3.0,96,0.08,,,0.05,VWS V14.01,2013-02-27 05:45:00,
2013-02-27 00:50:00,34.0,33.0,29.76,ESE,105,0.0,3.0,96,0.09,,,0.06,VWS V14.01,2013-02-27 05:50:00,
2013-02-27 00:55:00,34.0,33.0,29.76,ESE,104,0.0,3.0,96,0.10,,,0.07,VWS V14.01,2013-02-27 05:55:00,
2013-02-27 01:00:00,34.0,33.0,29.76,ESE,113,0.0,3.0,96,0.10,,,0.07,VWS V14.01,2013-02-27 06:00:00,
2013-02-27 02:35:00,34.1,33.3,29.69,South,182,0.0,0.0,97,0.05,,,0.14,VWS V14.01,2013-02-27 07:35:00,
2013-02-27 02:40:00,34.1,33.3,29.69,SW,223,0.0,1.0,97,0.06,,,0.15,VWS V14.01,2013-02-27 07:40:00,
2013-02-27 02:45:00,34.1,33.3,29.68,SW,222,0.0,1.0,97,0.07,,,0.16,VWS V14.01,2013-02-27 07:45:00,
2013-02-27 02:50:00,34.0,33.2,29.67,ENE,77,0.0,1.0,97,0.08,,,0.17,VWS V14.01,2013-02-27 07:50:00,
2013-02-27 02:55:00,34.1,33.3,29.67,East,93,0.0,1.0,97,0.08,,,0.17,VWS V14.01,2013-02-27 07:55:00,
2013-02-27 03:00:00,34.1,33.3,29.67,East,93,0.0,0.0,97,0.06,,,0.17,VWS V14.01,2013-02-27 08:00:00,
2013-02-27 03:05:00,34.1,33.3,29.66,SW,229,0.0,0.0,97,0.07,,,0.18,VWS V14.01,2013-02-27 08:05:00,
2013-02-27 03:10:00,34.1,33.3,29.66,East,100,0.0,0.0,97,0.08,,,0.19,VWS V14.01,2013-02-27 08:10:00,
2013-02-27 03:15:00,34.1,33.3,29.65,East,100,0.0,0.0,97,0.08,,,0.19,VWS V14.01,2013-02-27 08:15:00,
2013-02-27 03:20:00,34.1,33.3,29.65,ENE,71,0.0,0.0,97,0.08,,,0.19,VWS V14.01,2013-02-27 08:20:00,
2013-02-27 03:25:00,34.2,33.4,29.64,East,86,0.0,0.0,97,0.08,,,0.19,VWS V14.01,2013-02-27 08:25:00,
2013-02-27 16:37:00,39.8,38.0,29.61,West,281,4.0,4.0,93,0.00,,,0.86,VWS V14.01,2013-02-27 21:37:00,
2013-02-27 16:42:00,39.8,38.0,29.61,WNW,288,2.0,7.0,93,0.76,,,0.87,VWS V14.01,2013-02-27 21:42:00,
2013-02-27 16:47:00,39.9,38.0,29.61,WNW,286,4.0,7.0,93,0.76,,,0.87,VWS V14.01,2013-02-27 21:47:00,
2013-02-27 16:52:00,39.9,38.0,29.61,WNW,290,3.0,7.0,93,0.76,,,0.87,VWS V14.01,2013-02-27 21:52:00,
2013-02-27 16:57:00,40.0,38.1,29.61,WNW,295,3.0,7.0,93,0.76,,,0.87,VWS V14.01,2013-02-27 21:57:00,
2013-02-27 17:02:00,40.1,38.0,29.61,WNW,291,5.0,8.0,92,0.00,,OVC025,0.87,VWS V14.01,2013-02-27 22:02:00,
2013-02-27 17:07:00,40.1,38.0,29.61,WNW,286,3.0,8.0,92,0.00,,OVC025,0.87,VWS V14.01,2013-02-27 22:07:00,
2013-02-27 17:12:00,40.1,38.0,29.61,WSW,257,1.0,8.0,92,0.00,,OVC025,0.87,VWS V14.01,2013-02-27 22:12:00,
2013-02-27 17:17:00,40.1,38.0,29.62,West,271,1.0,8.0,92,0.00,,OVC025,0.87,VWS V14.01,2013-02-27 22:17:00,
2013-02-27 17:22:00,40.0,38.1,29.62,West,273,1.0,8.0,93,0.00,,OVC025,0.87,VWS V14.01,2013-02-27 22:22:00,
2013-02-27 17:27:00,40.0,37.9,29.62,West,281,2.0,8.0,92,0.00,,OVC025,0.87,VWS V14.01,2013-02-27 22:27:00,
2013-02-27 17:32:00,40.0,38.1,29.62,WNW,283,0.0,2.0,93,0.00,,OVC025,0.87,VWS V14.01,2013-02-27 22:32:00,
2013-02-27 17:37:00,40.0,38.1,29.62,WSW,252,1.0,4.0,93,0.00,,OVC025,0.87,VWS V14.01,2013-02-27 22:37:00,
2013-02-27 17:42:00,40.1,38.0,29.62,West,264,2.0,5.0,92,0.01,,OVC025,0.88,VWS V14.01,2013-02-27 22:42:00,
2013-02-27 17:47:00,40.1,38.0,29.63,West,278,3.0,5.0,92,0.01,,OVC025,0.88,VWS V14.01,2013-02-27 22:47:00,
2013-02-27 17:52:00,40.0,37.9,29.63,West,276,2.0,5.0,92,0.01,,OVC025,0.88,VWS V14.01,2013-02-27 22:52:00,
2013-02-27 17:57:00,40.0,37.9,29.63,West,280,2.0,5.0,92,0.01,,OVC025,0.88,VWS V14.01,2013-02-27 22:57:00,
2013-02-27 18:02:00,39.9,37.8,29.63,WNW,293,3.0,3.0,92,0.01,,OVC027,0.88,VWS V14.01,2013-02-27 23:02:00,
2013-02-27 18:07:00,39.8,37.7,29.63,WNW,285,2.0,4.0,92,0.01,,OVC027,0.88,VWS V14.01,2013-02-27 23:07:00,
2013-02-27 18:12:00,39.8,37.7,29.63,WNW,288,0.0,4.0,92,0.01,,OVC027,0.88,VWS V14.01,2013-02-27 23:12:00,
2013-02-27 18:17:00,39.7,37.8,29.63,West,277,1.0,4.0,93,0.01,,OVC027,0.88,VWS V14.01,2013-02-27 23:17:00,
2013-02-27 18:22:00,39.5,37.7,29.64,West,276,0.0,4.0,93,0.01,,OVC027,0.88,VWS V14.01,2013-02-27 23:22:00,
2013-02-27 18:27:00,39.4,37.5,29.64,West,277,0.0,4.0,93,0.01,,OVC027,0.88,VWS V14.01,2013-02-27 23:27:00,
2013-02-27 18:32:00,39.3,37.5,29.64,WNW,293,3.0,4.0,93,0.01,,OVC027,0.88,VWS V14.01,2013-02-27 23:32:00,
2013-02-27 18:37:00,39.2,37.3,29.64,WNW,288,1.0,4.0,93,0.01,,OVC027,0.88,VWS V14.01,2013-02-27 23:37:00,
2013-02-27 18:42:00,39.3,37.7,29.64,WNW,293,0.0,4.0,94,0.01,,OVC027,0.88,VWS V14.01,2013-02-27 23:42:00,
2013-02-27 18:47:00,39.2,37.6,29.64,WNW,290,0.0,4.0,94,0.01,,OVC027,0.88,VWS V14.01,2013-02-27 23:47:00,
2013-02-27 18:52:00,39.2,37.6,29.64,SW,231,1.0,4.0,94,0.01,,OVC027,0.88,VWS V14.01,2013-02-27 23:52:00,
2013-02-27 18:57:00,39.1,37.5,29.64,SW,230,0.0,4.0,94,0.01,,OVC027,0.88,VWS V14.01,2013-02-27 23:57:00,
2013-02-27 19:02:00,39.1,37.5,29.64,West,274,0.0,0.0,94,0.00,,OVC027,0.88,VWS V14.01,2013-02-28 00:02:00,
2013-02-27 19:07:00,39.1,37.5,29.64,West,274,0.0,1.0,94,0.00,,OVC027,0.88,VWS V14.01,2013-02-28 00:07:00,
2013-02-27 19:12:00,39.0,37.4,29.64,West,274,0.0,1.0,94,0.00,,OVC027,0.88,VWS V14.01,2013-02-28 00:12:00,
2013-02-27 19:17:00,39.0,37.7,29.64,West,274,0.0,1.0,95,0.00,,OVC027,0.88,VWS V14.01,2013-02-28 00:17:00,
2013-02-27 19:22:00,38.8,37.2,29.64,West,274,0.0,1.0,94,0.00,,OVC027,0.88,VWS V14.01,2013-02-28 00:22:00,
2013-02-27 19:27:00,38.7,37.4,29.64,West,274,0.0,1.0,95,0.00,,OVC027,0.88,VWS V14.01,2013-02-28 00:27:00,
2013-02-27 19:32:00,38.7,37.4,29.64,West,274,0.0,0.0,95,0.00,,,0.88,VWS V14.01,2013-02-28 00:32:00,
2013-02-27 19:37:00,38.5,37.2,29.64,West,274,0.0,0.0,95,0.00,,,0.88,VWS V14.01,2013-02-28 00:37:00,
2013-02-27 19:42:00,38.4,37.1,29.63,East,97,0.0,0.0,95,0.00,,,0.88,VWS V14.01,2013-02-28 00:42:00,
2013-02-27 19:47:00,38.3,37.0,29.63,East,98,0.0,0.0,95,0.00,,,0.88,VWS V14.01,2013-02-28 00:47:00,
2013-02-27 19:52:00,38.1,36.8,29.63,ESE,107,1.0,1.0,95,0.00,,,0.88,VWS V14.01,2013-02-28 00:52:00,
2013-02-27 19:57:00,38.2,37.2,29.63,ESE,107,0.0,1.0,96,0.00,,,0.88,VWS V14.01,2013-02-28 00:57:00,
2013-02-27 20:02:00,38.0,36.7,29.63,ESE,108,0.0,0.0,95,0.00,,,0.88,VWS V14.01,2013-02-28 01:02:00,
2013-02-27 20:07:00,37.9,36.9,29.63,ESE,107,0.0,0.0,96,0.00,,,0.88,VWS V14.01,2013-02-28 01:07:00,
2013-02-27 20:12:00,37.9,36.9,29.63,ESE,107,0.0,0.0,96,0.00,,,0.88,VWS V14.01,2013-02-28 01:12:00,
2013-02-27 20:17:00,37.8,36.8,29.63,ESE,107,0.0,0.0,96,0.00,,,0.88,VWS V14.01,2013-02-28 01:17:00,
2013-02-27 20:22:00,37.8,36.8,29.63,SSW,212,0.0,0.0,96,0.00,,,0.88,VWS V14.01,2013-02-28 01:22:00,
2013-02-27 20:27:00,37.7,36.7,29.64,SSW,212,0.0,0.0,96,0.00,,,0.88,VWS V14.01,2013-02-28 01:27:00,
2013-02-27 20:32:00,37.6,36.6,29.63,SSW,212,0.0,0.0,96,0.00,,,0.88,VWS V14.01,2013-02-28 01:32:00,
2013-02-27 20:37:00,37.5,36.5,29.64,SSW,212,0.0,0.0,96,0.00,,,0.88,VWS V14.01,2013-02-28 01:37:00,
2013-02-27 20:42:00,37.5,36.5,29.63,SSW,212,0.0,0.0,96,0.00,,,0.88,VWS V14.01,2013-02-28 01:42:00,
2013-02-27 20:47:00,37.5,36.5,29.64,SSW,212,0.0,0.0,96,0.00,,,0.88,VWS V14.01,2013-02-28 01:47:00,
2013-02-27 20:52:00,37.4,36.4,29.64,SSW,212,0.0,0.0,96,0.00,,,0.88,VWS V14.01,2013-02-28 01:52:00,
2013-02-27 20:57:00,37.3,36.3,29.64,SSW,212,0.0,0.0,96,0.00,,,0.88,VWS V14.01,2013-02-28 01:57:00,
2013-02-27 21:02:00,37.2,36.2,29.64,SSW,212,0.0,0.0,96,0.00,,,0.88,VWS V14.01,2013-02-28 02:02:00,
2013-02-27 21:07:00,37.2,36.4,29.64,SSW,212,0.0,0.0,97,0.00,,,0.88,VWS V14.01,2013-02-28 02:07:00,
2013-02-27 21:12:00,37.1,36.3,29.64,SSW,212,0.0,0.0,97,0.00,,,0.88,VWS V14.01,2013-02-28 02:12:00,
2013-02-27 21:17:00,37.1,36.3,29.63,SSW,212,0.0,0.0,97,0.00,,,0.88,VWS V14.01,2013-02-28 02:17:00,
2013-02-27 21:22:00,36.9,36.1,29.63,SSW,212,0.0,0.0,97,0.00,,,0.88,VWS V14.01,2013-02-28 02:22:00,
2013-02-27 21:27:00,36.8,36.0,29.63,SSW,212,0.0,0.0,97,0.00,,,0.88,VWS V14.01,2013-02-28 02:27:00,
2013-02-27 21:32:00,36.7,35.9,29.63,SSW,212,0.0,0.0,97,0.00,,,0.88,VWS V14.01,2013-02-28 02:32:00,
2013-02-27 21:37:00,36.6,35.8,29.63,SSW,212,0.0,0.0,97,0.00,,,0.88,VWS V14.01,2013-02-28 02:37:00,
2013-02-27 21:42:00,36.6,35.8,29.63,SSW,212,0.0,0.0,97,0.00,,,0.88,VWS V14.01,2013-02-28 02:42:00,
2013-02-27 21:47:00,36.6,35.8,29.63,ESE,105,0.0,0.0,97,0.00,,,0.88,VWS V14.01,2013-02-28 02:47:00,
2013-02-27 21:52:00,36.7,35.9,29.64,ESE,105,0.0,0.0,97,0.00,,,0.88,VWS V14.01,2013-02-28 02:52:00,
2013-02-27 21:57:00,36.6,35.8,29.63,ESE,105,0.0,0.0,97,0.00,,,0.88,VWS V14.01,2013-02-28 02:57:00,
2013-02-27 22:02:00,36.8,36.0,29.63,WSW,243,1.0,1.0,97,0.00,,,0.88,VWS V14.01,2013-02-28 03:02:00,
2013-02-27 22:07:00,36.6,35.8,29.63,WSW,250,0.0,1.0,97,0.00,,,0.88,VWS V14.01,2013-02-28 03:07:00,
2013-02-27 22:12:00,36.7,35.9,29.63,WSW,250,0.0,1.0,97,0.00,,,0.88,VWS V14.01,2013-02-28 03:12:00,
2013-02-27 22:17:00,36.9,36.4,29.63,SSE,157,0.0,1.0,98,0.00,,,0.88,VWS V14.01,2013-02-28 03:17:00,
2013-02-27 22:22:00,37.0,36.2,29.63,SSE,157,0.0,1.0,97,0.00,,,0.88,VWS V14.01,2013-02-28 03:22:00,
2013-02-27 22:27:00,36.9,36.1,29.63,SSE,157,0.0,1.0,97,0.00,,,0.88,VWS V14.01,2013-02-28 03:27:00,
2013-02-27 22:32:00,36.9,36.1,29.63,SSE,157,0.0,0.0,97,0.00,,,0.88,VWS V14.01,2013-02-28 03:32:00,
2013-02-27 22:37:00,36.9,36.1,29.63,SSE,156,0.0,0.0,97,0.00,,,0.88,VWS V14.01,2013-02-28 03:37:00,
2013-02-27 22:42:00,36.8,36.0,29.63,SSE,156,0.0,0.0,97,0.00,,,0.88,VWS V14.01,2013-02-28 03:42:00,
2013-02-27 22:47:00,36.8,36.0,29.63,SSE,156,0.0,0.0,97,0.00,,,0.88,VWS V14.01,2013-02-28 03:47:00,
2013-02-27 22:52:00,36.7,35.9,29.63,SSE,156,0.0,0.0,97,0.00,,,0.88,VWS V14.01,2013-02-28 03:52:00,
2013-02-27 22:57:00,36.7,35.9,29.63,SSE,156,0.0,0.0,97,0.00,,,0.88,VWS V14.01,2013-02-28 03:57:00,
2013-02-27 23:02:00,36.7,35.9,29.62,SSE,157,0.0,0.0,97,0.00,,,0.88,VWS V14.01,2013-02-28 04:02:00,
2013-02-27 23:07:00,36.5,35.7,29.62,SSE,156,0.0,0.0,97,0.00,,,0.88,VWS V14.01,2013-02-28 04:07:00,
2013-02-27 23:12:00,36.5,35.7,29.62,SSW,202,0.0,0.0,97,0.00,,,0.88,VWS V14.01,2013-02-28 04:12:00,
2013-02-27 23:17:00,36.5,35.7,29.62,SSW,203,0.0,0.0,97,0.00,,,0.88,VWS V14.01,2013-02-28 04:17:00,
2013-02-27 23:22:00,36.5,35.7,29.62,SSW,203,0.0,0.0,97,0.00,,,0.88,VWS V14.01,2013-02-28 04:22:00,
2013-02-27 23:27:00,36.6,35.8,29.62,SSW,203,0.0,0.0,97,0.00,,,0.88,VWS V14.01,2013-02-28 04:27:00,
2013-02-27 23:32:00,36.6,35.8,29.62,SSW,203,0.0,0.0,97,0.00,,,0.88,VWS V14.01,2013-02-28 04:32:00,
2013-02-27 23:37:00,36.7,36.2,29.62,SSW,203,0.0,0.0,98,0.00,,,0.88,VWS V14.01,2013-02-28 04:37:00,
2013-02-27 23:42:00,36.7,36.2,29.61,SSW,203,0.0,0.0,98,0.00,,,0.88,VWS V14.01,2013-02-28 04:42:00,
2013-02-27 23:47:00,36.6,35.8,29.61,SSW,203,0.0,0.0,97,0.00,,,0.88,VWS V14.01,2013-02-28 04:47:00,
2013-02-27 23:52:00,36.5,35.7,29.61,SSW,203,0.0,0.0,97,0.00,,,0.88,VWS V14.01,2013-02-28 04:52:00,
2013-02-27 23:57:00,36.6,36.1,29.61,SSW,203,0.0,0.0,98,0.00,,,0.88,VWS V14.01,2013-02-28 04:57:00,